• Join FlightAware (Why Join?)
  • Login
  • US Flag 
11:48AM EDT


 

Airport Tracker/Info


-or-


 

Live Flight TrackerFlight Track Log ✈ SWA561 ✈ 14-Apr-2013 ✈ KOAK - KLAX

Flight Track Log - Related Links

Times and Time Zones

All times are in EDT time to prevent confusion due to time zone crossing. See the SWA561 flight status page for this flight to view local times or setup timezone preferences in your user account.

Time Position Orientation Groundspeed Altitude Reporting Facility
EDT Latitude Longitude Course Direction KTS MPH feet Rate Location/Type
08:12PM 37.7167 -122.2500 310° West 140 161 1,500  Level Northern Cal TRACON
08:13PM 37.7500 -122.3000 310° West 199 229 4,500 2,760 Climbing Northern Cal TRACON
08:14PM 37.7442 -122.3217 251° West 204 235 5,700 3,120 Climbing Oakland Center
08:15PM 37.7250 -122.3922 251° West 220 253 9,300 3,480 Climbing Oakland Center
08:15PM 37.6667 -122.4000 186° South 331 381 10,900 3,120 Climbing Northern Cal TRACON
08:16PM 37.6183 -122.3767 159° South 343 395 12,500 3,120 Climbing Oakland Center
08:17PM 37.5236 -122.3125 152° Southeast 385 443 15,900 3,000 Climbing Oakland Center
08:18PM 37.4367 -122.2139 138° Southeast 422 486 18,700 2,820 Climbing Oakland Center
08:19PM 37.3514 -122.1017 134° Southeast 442 509 21,700 2,820 Climbing Oakland Center
08:20PM 37.2625 -121.9878 134° Southeast 455 524 24,500 2,460 Climbing Oakland Center
08:21PM 37.1725 -121.8722 134° Southeast 464 534 26,800 2,040 Climbing Oakland Center
08:22PM 37.0789 -121.7533 135° Southeast 476 548 28,700 1,740 Climbing Oakland Center
08:23PM 36.9814 -121.6314 135° Southeast 492 566 30,400 1,560 Climbing Oakland Center
08:24PM 36.8819 -121.5058 135° Southeast 508 585 32,000 1,980 Climbing Oakland Center
08:25PM 36.7711 -121.3642 134° Southeast 510 587 34,500 2,160 Climbing Oakland Center
08:26PM 36.6744 -121.2431 135° Southeast 496 571 36,400 1,560 Climbing Oakland Center
08:27PM 36.5775 -121.1236 135° Southeast 491 565 37,700 1,200 Climbing Oakland Center
08:28PM 36.4803 -121.0022 135° Southeast 493 567 38,900 600 Climbing Oakland Center
08:29PM 36.3828 -120.8803 135° Southeast 497 572 39,000  Climbing Oakland Center
08:30PM 36.2858 -120.7583 135° Southeast 497 572 39,000  Level Oakland Center
08:31PM 36.1872 -120.6386 136° Southeast 495 570 39,000  Level Oakland Center
08:32PM 36.0706 -120.4942 135° Southeast 493 567 39,000  Level Oakland Center
08:33PM 35.9736 -120.3758 135° Southeast 488 562 39,000  Level Oakland Center
08:34PM 35.8775 -120.2583 135° Southeast 486 559 39,000  Level Oakland Center
08:35PM 35.7814 -120.1417 135° Southeast 481 554 39,000  Level Oakland Center
08:36PM 35.6842 -120.0231 135° Southeast 486 559 39,000  Level Oakland Center
08:37PM 35.5792 -119.9181 141° Southeast 482 555 39,000  Level Oakland Center
08:38PM 35.4675 -119.8231 145° Southeast 481 554 39,000  Level Oakland Center
08:39PM 35.3575 -119.7275 145° Southeast 482 555 39,000 -1,080 Level Oakland Center
08:40PM 35.2481 -119.6339 145° Southeast 478 550 36,900 -2,460 Descending Oakland Center
08:41PM 35.1392 -119.5411 145° Southeast 476 548 34,000 -2,880 Descending Oakland Center
08:42PM 35.0306 -119.4478 145° Southeast 476 548 31,100 -2,640 Descending Oakland Center
08:43PM 34.9231 -119.3572 145° Southeast 473 544 28,700 -2,280 Descending Oakland Center
08:44PM 34.8178 -119.2683 145° Southeast 464 534 26,500 -2,220 Descending Oakland Center
08:45PM 34.7186 -119.1844 145° Southeast 445 512 24,300 -2,460 Descending Oakland Center
08:46PM 34.6789 -119.1514 146° Southeast 436 502 23,400 -2,280 Descending Los Angeles Center
08:47PM 34.5878 -119.0756 146° Southeast 430 495 21,400 -2,040 Descending Los Angeles Center
08:48PM 34.4947 -118.9978 145° Southeast 405 466 19,300 -2,280 Descending Los Angeles Center
08:49PM 34.3856 -118.9053 145° Southeast 394 453 16,700 -2,400 Descending Los Angeles Center
08:50PM 34.2797 -118.8531 158° South 413 475 14,400 -2,280 Descending Los Angeles Center
08:51PM 34.1733 -118.8128 163° South 402 463 12,100 -1,740 Descending Los Angeles Center
08:52PM 34.0672 -118.7722 162° South 376 433 10,900 -1,080 Descending Los Angeles Center
08:53PM 34.0297 -118.6664 113° Southeast 331 381 9,900 -1,200 Descending Los Angeles Center
08:54PM 34.0197 -118.5625 97° East 313 360 8,500 -1,020 Descending Los Angeles Center
08:55PM 34.0108 -118.4650 96° East 292 336 7,800 -1,260 Descending Los Angeles Center
08:56PM 34.0183 -118.3778 84° East 250 288 6,000 -1,800 Descending Los Angeles Center
08:57PM 34.0289 -118.2914 82° East 257 296 4,100 -1,740 Descending Los Angeles Center
08:58PM 34.0122 -118.2258 107° East 243 280 2,500 -960 Descending Los Angeles Center
08:59PM 33.9722 -118.2578 214° Southwest 209 241 2,200 -480 Descending Los Angeles Center
09:00PM 33.9608 -118.3142 256° West 188 216 1,500 -780 Descending Los Angeles Center
09:01PM 33.9569 -118.3683 265° West 152 175 700 -720 Descending Los Angeles Center
09:02PM 33.9519 -118.4144 263° West 138 159 100 -600 Descending Los Angeles Center
09:04PM 33.9425 -118.4081 228° Southwest  Level Estimated
09:11PM 33.9425 -118.4081 228° Southwest  Level Estimated